Airfield :
LOGIN :

Register | Disclaimer

   EN    FR    IT 

 










Legend :    VFR   Marginal VFR   IFR   Intensive IFR   Very Intensive IFR
Visi :
Ceiling :
>= 8 km
>= 3000ft
5 to 8 km
1000 to 3000 ft
1500m to 5 km
500 to 1000 ft
800 to 1500m
200 to 500 ft
< 800m
< 200 ft
Symbols :   Thunderstorms  Fog  Heavy snow  Heavy precipitations  Wind > 20 kt
SIGMETs :     Misc.  Thunderstorms  Icing  Turbulence  Mountain Waves  Volcanic Ashes







- Airport Elevation : 505 ft
- IATA code : SXB
- Download approach charts


LFST - Strasbourg

CURRENT METAR :
  • 182100Z AUTO 20008KT 9999 -RA SCT028 BKN035 BKN044 05/02 Q1021 NOSIG

EXPIRED METARs :
  • 182030Z AUTO 20009KT 9999 SCT054 BKN066 BKN094 06/01 Q1022 NOSIG
  • 182000Z AUTO 19007KT 9999 FEW038 BKN170 OVC200 05/01 Q1022 NOSIG
  • 181930Z AUTO 19007KT 9999 OVC040 06/01 Q1022 NOSIG
  • 181900Z AUTO 21004KT 9999 OVC040 05/01 Q1023 NOSIG
  • 181830Z AUTO 21005KT 9999 OVC040 05/01 Q1023 NOSIG
  • 181800Z AUTO 21006KT 9999 OVC040 05/01 Q1023 NOSIG

TAF TAF LFST
Valid from the 18 at 18:00 until the 19 at 18:00 UTC


181700Z 1818/1918 22008KT 9999 BKN040
TEMPO 1822/1908 -RA BKN020
PROB40
TEMPO 1900/1903 20012G22KT
BECMG 1908/1910 30010KT
No reported NOTAMs for that airfield.



MET'MAP, your aeronautical weather chart ! - Copyright ORBIFLY December 2007 - Disclaimer

ORBIFLY MET'MAP TEAM :

Programming & Development : Alexandra Zaïnal
Concept & Development : Baudouin d'Aumeries
Co-Development & Prog : Marc-Olivier Méhu
Technical & hardware support : Manuel Goepfert

Contact : metmap@orbifly.com




SOURCES & CREDITS :

   NOAA